Time;durP1;ratioP1;P1;durP2;ratioP2;P2;SDS_P1;SDS_P2;PMS_P1;PMS_P2;Temp;Humidity;BMP_temperature;BMP_pressure;BME280_temperature;BME280_humidity;BME280_pressure;Samples;Min_cycle;Max_cycle;Signal;HPM_P1;HPM_P2
2023/06/09 00:02:13;;;;;;;0.10;0.10;;;17.50;99.90;;;;;;5047028;28;20206;-80
2023/06/09 00:04:39;;;;;;;0.10;0.10;;;17.30;99.90;;;;;;5046861;28;20201;-80
2023/06/09 00:07:05;;;;;;;0.10;0.10;;;17.30;99.90;;;;;;5048189;28;20264;-80
2023/06/09 00:09:31;;;;;;;0.10;0.10;;;17.50;99.90;;;;;;5046773;28;20667;-80
2023/06/09 00:11:56;;;;;;;0.10;0.10;;;17.60;99.90;;;;;;5046291;28;20269;-81
2023/06/09 00:14:22;;;;;;;0.10;0.10;;;17.60;99.90;;;;;;5047025;28;20194;-80
2023/06/09 00:16:47;;;;;;;0.10;0.10;;;17.60;99.90;;;;;;5046131;28;20243;-81
2023/06/09 00:19:14;;;;;;;0.10;0.10;;;17.70;99.90;;;;;;5046204;28;20177;-80
2023/06/09 00:21:39;;;;;;;0.10;0.10;;;17.80;99.90;;;;;;5046331;28;20178;-80
2023/06/09 00:24:05;;;;;;;0.10;0.10;;;17.80;99.90;;;;;;5046094;28;20188;-80
2023/06/09 00:26:31;;;;;;;0.10;0.10;;;17.80;99.90;;;;;;5045617;28;20296;-80
2023/06/09 00:28:56;;;;;;;0.10;0.10;;;17.80;99.90;;;;;;5045225;28;20296;-80
2023/06/09 00:31:22;;;;;;;0.10;0.10;;;17.70;99.90;;;;;;5045737;28;20200;-80
2023/06/09 00:33:47;;;;;;;0.10;0.10;;;17.50;99.90;;;;;;5045183;28;20185;-80
2023/06/09 00:36:14;;;;;;;0.10;0.10;;;17.40;99.90;;;;;;5045166;28;20221;-80
2023/06/09 00:38:39;;;;;;;0.10;0.10;;;17.40;99.90;;;;;;5045074;28;20209;-80
2023/06/09 00:41:05;;;;;;;0.10;0.10;;;17.50;99.90;;;;;;5046514;28;20651;-80
2023/06/09 00:43:30;;;;;;;0.10;0.10;;;17.50;99.90;;;;;;5045053;28;20686;-80
2023/06/09 00:45:56;;;;;;;0.10;0.10;;;17.50;99.90;;;;;;5045989;28;20209;-80
2023/06/09 00:48:22;;;;;;;0.10;0.10;;;17.50;99.90;;;;;;5044991;28;20289;-80
2023/06/09 00:50:48;;;;;;;0.10;0.10;;;17.50;99.90;;;;;;5046466;28;20217;-80
2023/06/09 00:53:15;;;;;;;0.10;0.10;;;17.50;99.90;;;;;;5045518;28;20563;-80
2023/06/09 00:55:41;;;;;;;0.10;0.10;;;17.50;99.90;;;;;;5044106;28;20217;-80
2023/06/09 00:58:08;;;;;;;0.10;0.10;;;17.30;99.90;;;;;;5044781;28;20234;-80
2023/06/09 01:00:35;;;;;;;0.10;0.10;;;17.20;99.90;;;;;;5044458;28;20297;-80
2023/06/09 01:03:01;;;;;;;0.10;0.10;;;17.00;99.90;;;;;;5045911;28;20174;-80
2023/06/09 01:05:30;;;;;;;0.10;0.10;;;16.70;99.90;;;;;;5044862;28;20301;-80
2023/06/09 01:08:03;;;;;;;0.10;0.10;;;16.40;99.90;;;;;;5044091;28;20255;-80
2023/06/09 01:10:46;;;;;;;0.10;0.10;;;16.30;99.90;;;;;;5045829;28;20182;-80
2023/06/09 01:13:24;;;;;;;0.10;0.10;;;16.30;99.90;;;;;;5044929;28;20590;-80
2023/06/09 01:15:59;;;;;;;0.10;0.10;;;16.20;99.90;;;;;;5045865;28;20208;-80
2023/06/09 01:18:30;;;;;;;0.10;0.10;;;16.40;99.90;;;;;;5044796;28;20193;-80
2023/06/09 01:21:06;;;;;;;0.10;0.10;;;16.50;99.90;;;;;;5043778;28;20181;-80
2023/06/09 01:24:04;;;;;;;0.10;0.10;;;16.40;99.90;;;;;;5044536;28;20186;-80
2023/06/09 01:26:31;;;;;;;0.10;0.10;;;16.30;99.90;;;;;;5044177;28;20636;-80
2023/06/09 01:28:59;;;;;;;0.10;0.10;;;16.10;99.90;;;;;;5045803;28;20186;-80
2023/06/09 01:31:25;;;;;;;0.10;0.10;;;15.90;99.90;;;;;;5044134;28;20258;-80
2023/06/09 01:33:51;;;;;;;0.10;0.10;;;15.90;99.90;;;;;;5044365;28;20689;-80
2023/06/09 01:36:17;;;;;;;0.10;0.10;;;15.90;99.90;;;;;;5045345;28;20237;-80
2023/06/09 01:38:43;;;;;;;0.10;0.10;;;15.90;99.90;;;;;;5044429;28;20213;-80
2023/06/09 01:41:09;;;;;;;0.10;0.10;;;16.10;99.90;;;;;;5045110;28;20182;-80
2023/06/09 01:43:35;;;;;;;0.10;0.10;;;16.10;99.90;;;;;;5043972;28;20514;-80
2023/06/09 01:46:00;;;;;;;0.10;0.10;;;16.20;99.90;;;;;;5045470;28;20273;-80
2023/06/09 01:48:50;;;;;;;0.10;0.10;;;16.30;99.90;;;;;;5045392;28;20188;-80
2023/06/09 01:51:29;;;;;;;0.10;0.10;;;16.30;99.90;;;;;;5043065;28;20193;-80
2023/06/09 01:54:01;;;;;;;0.10;0.10;;;16.20;99.90;;;;;;5043223;28;20186;-80
2023/06/09 01:56:36;;;;;;;0.10;0.10;;;16.00;99.90;;;;;;5044116;28;20206;-80
2023/06/09 01:59:08;;;;;;;0.10;0.10;;;15.90;99.90;;;;;;5044175;28;20172;-80
2023/06/09 02:01:36;;;;;;;0.10;0.10;;;15.80;99.90;;;;;;5044159;28;20189;-80
2023/06/09 02:04:05;;;;;;;0.10;0.10;;;15.70;99.90;;;;;;5045438;28;20177;-80
2023/06/09 02:06:32;;;;;;;0.10;0.10;;;15.80;99.90;;;;;;5043743;28;20246;-81
2023/06/09 02:08:59;;;;;;;0.10;0.10;;;15.80;99.90;;;;;;5048238;28;20192;-80
2023/06/09 02:11:25;;;;;;;0.10;0.10;;;15.80;99.90;;;;;;5048332;28;20667;-80
2023/06/09 02:13:55;;;;;;;0.10;0.10;;;15.80;99.90;;;;;;5047806;28;20177;-80
2023/06/09 02:16:22;;;;;;;0.10;0.10;;;15.80;99.90;;;;;;5048996;28;20213;-80
2023/06/09 02:18:48;;;;;;;0.10;0.10;;;15.90;99.90;;;;;;5047673;28;20812;-80
2023/06/09 02:21:14;;;;;;;0.10;0.10;;;16.00;99.90;;;;;;5048964;28;20239;-80
2023/06/09 02:23:40;;;;;;;0.10;0.10;;;15.90;99.90;;;;;;5049281;28;21186;-80
2023/06/09 02:26:09;;;;;;;0.10;0.10;;;15.90;99.90;;;;;;5047137;28;20205;-80
2023/06/09 02:28:34;;;;;;;0.10;0.10;;;15.90;99.90;;;;;;5049225;28;20190;-80
2023/06/09 02:31:00;;;;;;;0.10;0.10;;;15.80;99.90;;;;;;5046795;28;20243;-80
2023/06/09 02:33:26;;;;;;;0.10;0.10;;;15.70;99.90;;;;;;5047790;28;20189;-80
2023/06/09 02:35:52;;;;;;;0.10;0.10;;;15.70;99.90;;;;;;5048088;28;20221;-81
2023/06/09 02:38:18;;;;;;;0.10;0.10;;;15.60;99.90;;;;;;5047060;28;20189;-80
2023/06/09 02:40:46;;;;;;;0.10;0.10;;;15.40;99.90;;;;;;5047059;28;20190;-80
2023/06/09 02:43:12;;;;;;;0.10;0.10;;;15.40;99.90;;;;;;5047343;28;20224;-80
2023/06/09 02:45:37;;;;;;;0.10;0.10;;;15.30;99.90;;;;;;5047491;28;20190;-80
2023/06/09 02:48:03;;;;;;;0.10;0.10;;;15.30;99.90;;;;;;5047635;28;20189;-80
2023/06/09 02:50:28;;;;;;;0.10;0.10;;;15.30;99.90;;;;;;5048476;28;20275;-80
2023/06/09 02:52:54;;;;;;;0.10;0.10;;;15.40;99.90;;;;;;5047350;28;20189;-80
2023/06/09 02:55:20;;;;;;;0.10;0.10;;;15.40;99.90;;;;;;5047594;28;20209;-80
2023/06/09 02:57:46;;;;;;;0.10;0.10;;;15.40;99.90;;;;;;5047292;28;20205;-80
2023/06/09 03:00:12;;;;;;;0.10;0.10;;;15.40;99.90;;;;;;5047353;28;20780;-80
2023/06/09 03:02:38;;;;;;;0.10;0.10;;;15.40;99.90;;;;;;5048182;28;20216;-80
2023/06/09 03:05:05;;;;;;;0.10;0.10;;;15.40;99.90;;;;;;5046108;28;20193;-80
2023/06/09 03:07:31;;;;;;;0.10;0.10;;;15.50;99.90;;;;;;5047389;28;20280;-80
2023/06/09 03:09:58;;;;;;;0.10;0.10;;;15.70;99.90;;;;;;5046925;28;20264;-80
2023/06/09 03:12:23;;;;;;;0.10;0.10;;;15.80;99.90;;;;;;5048014;28;20181;-80
2023/06/09 03:14:49;;;;;;;0.10;0.10;;;15.80;99.90;;;;;;5047356;28;20196;-80
2023/06/09 03:17:17;;;;;;;0.10;0.10;;;16.00;99.90;;;;;;5046785;28;20210;-80
2023/06/09 03:19:42;;;;;;;0.10;0.10;;;16.10;99.90;;;;;;5048085;28;20169;-80
2023/06/09 03:22:08;;;;;;;0.10;0.10;;;16.20;99.90;;;;;;5047063;28;20297;-80
2023/06/09 03:24:34;;;;;;;0.10;0.10;;;16.30;99.90;;;;;;5047704;28;20185;-80
2023/06/09 03:26:59;;;;;;;0.10;0.10;;;16.30;99.90;;;;;;5047349;28;20288;-80
2023/06/09 03:29:25;;;;;;;0.10;0.10;;;16.10;99.90;;;;;;5046676;28;20333;-80
2023/06/09 03:31:50;;;;;;;0.10;0.10;;;16.00;99.90;;;;;;5047094;28;20265;-80
2023/06/09 03:34:16;;;;;;;0.10;0.10;;;16.00;99.90;;;;;;5047650;28;20554;-80
2023/06/09 03:36:41;;;;;;;0.60;0.60;;;15.90;99.90;;;;;;5047513;28;20331;-80
2023/06/09 03:39:07;;;;;;;0.10;0.10;;;16.30;99.90;;;;;;5046931;28;20182;-80
2023/06/09 03:41:33;;;;;;;0.10;0.10;;;16.90;99.90;;;;;;5052715;28;20256;-80
2023/06/09 03:43:59;;;;;;;0.10;0.10;;;17.10;99.90;;;;;;5053228;28;20642;-81
2023/06/09 03:46:24;;;;;;;0.10;0.10;;;17.20;99.90;;;;;;5053835;28;20201;-81
2023/06/09 03:48:51;;;;;;;0.10;0.10;;;17.30;99.90;;;;;;5054902;28;21110;-81
2023/06/09 03:51:17;;;;;;;0.10;0.10;;;17.60;99.90;;;;;;5054625;28;20193;-80
2023/06/09 03:53:42;;;;;;;0.10;0.10;;;18.10;99.90;;;;;;5049449;28;20186;-80
2023/06/09 03:56:08;;;;;;;0.10;0.10;;;18.60;99.90;;;;;;5049531;28;20686;-80
2023/06/09 03:58:34;;;;;;;0.10;0.10;;;19.30;99.90;;;;;;5047587;28;20186;-80
2023/06/09 04:01:00;;;;;;;0.10;0.10;;;20.00;99.90;;;;;;5048032;28;20177;-80
2023/06/09 04:03:26;;;;;;;0.10;0.10;;;20.50;99.90;;;;;;5048067;28;20185;-80
2023/06/09 04:05:51;;;;;;;0.10;0.10;;;20.80;99.90;;;;;;5047715;28;20292;-80
2023/06/09 04:08:17;;;;;;;0.10;0.10;;;21.20;99.90;;;;;;5048771;28;20653;-80
2023/06/09 04:10:43;;;;;;;0.10;0.10;;;20.70;99.90;;;;;;5048070;28;20212;-80
2023/06/09 04:13:10;;;;;;;0.10;0.10;;;20.20;99.90;;;;;;5047606;28;20180;-80
2023/06/09 04:15:36;;;;;;;0.10;0.10;;;20.30;99.90;;;;;;5046874;28;20198;-81
2023/06/09 04:18:03;;;;;;;0.10;0.10;;;20.50;99.90;;;;;;5046522;28;20669;-80
2023/06/09 04:20:29;;;;;;;0.10;0.10;;;21.00;99.90;;;;;;5047053;28;20275;-80
2023/06/09 04:22:55;;;;;;;0.10;0.10;;;21.70;99.90;;;;;;5048076;28;20185;-80
2023/06/09 04:25:27;;;;;;;0.10;0.10;;;21.80;99.90;;;;;;5047329;28;20251;-80
2023/06/09 04:27:54;;;;;;;0.10;0.10;;;21.60;99.90;;;;;;5046811;28;20255;-80
2023/06/09 04:30:25;;;;;;;0.10;0.10;;;21.20;99.90;;;;;;5046791;28;20193;-80
2023/06/09 04:32:55;;;;;;;0.10;0.10;;;21.10;99.90;;;;;;5046929;28;20185;-80
2023/06/09 04:35:21;;;;;;;0.10;0.10;;;20.90;99.90;;;;;;5047027;28;20212;-80
2023/06/09 04:37:48;;;;;;;0.10;0.10;;;20.30;99.90;;;;;;5047203;28;20204;-80
2023/06/09 04:40:21;;;;;;;0.10;0.10;;;19.50;99.90;;;;;;5046369;28;20181;-80
2023/06/09 04:42:50;;;;;;;0.10;0.10;;;19.00;99.90;;;;;;5045831;28;20212;-80
2023/06/09 04:45:17;;;;;;;0.10;0.10;;;18.70;99.90;;;;;;5048275;28;20657;-80
2023/06/09 04:47:42;;;;;;;0.10;0.10;;;18.50;99.90;;;;;;5045816;28;20204;-80
2023/06/09 04:50:08;;;;;;;0.10;0.10;;;18.20;99.90;;;;;;5048075;28;20186;-80
2023/06/09 04:52:34;;;;;;;0.10;0.10;;;18.20;99.90;;;;;;5046247;28;20181;-80
2023/06/09 04:54:59;;;;;;;0.10;0.10;;;18.60;99.90;;;;;;5046005;28;20197;-80
2023/06/09 04:57:28;;;;;;;0.10;0.10;;;18.70;99.90;;;;;;5047725;28;20938;-80
2023/06/09 04:59:53;;;;;;;0.10;0.10;;;18.60;99.90;;;;;;5047743;28;20662;-80
2023/06/09 05:02:19;;;;;;;0.10;0.10;;;18.30;99.90;;;;;;5046451;28;20183;-80
2023/06/09 05:04:44;;;;;;;0.10;0.10;;;18.30;99.90;;;;;;5046734;28;20273;-80
2023/06/09 05:07:10;;;;;;;0.10;0.10;;;18.20;99.90;;;;;;5046290;28;20709;-80
2023/06/09 05:09:35;;;;;;;0.10;0.10;;;18.30;99.90;;;;;;5045707;28;20192;-80
2023/06/09 05:12:01;;;;;;;0.10;0.10;;;18.20;99.90;;;;;;5045791;28;20650;-80
2023/06/09 05:14:26;;;;;;;0.10;0.10;;;18.40;99.90;;;;;;5047244;28;21215;-81
2023/06/09 05:16:53;;;;;;;0.10;0.10;;;18.50;99.90;;;;;;5046705;28;20307;-81
2023/06/09 05:19:19;;;;;;;0.10;0.10;;;18.50;99.90;;;;;;5045096;28;20231;-80
2023/06/09 05:21:46;;;;;;;0.10;0.10;;;18.60;99.90;;;;;;5053394;28;20188;-80
2023/06/09 05:24:12;;;;;;;0.10;0.10;;;18.70;99.90;;;;;;5045208;28;20193;-80
2023/06/09 05:26:37;;;;;;;0.10;0.10;;;18.70;99.90;;;;;;5045086;28;20213;-80
2023/06/09 05:29:03;;;;;;;0.10;0.10;;;18.80;99.90;;;;;;5037553;28;20543;-80
2023/06/09 05:31:29;;;;;;;0.10;0.10;;;18.90;99.90;;;;;;5045471;28;20196;-80
2023/06/09 05:33:54;;;;;;;0.10;0.10;;;19.30;99.90;;;;;;5045702;28;20192;-80
2023/06/09 05:36:20;;;;;;;0.10;0.10;;;19.60;99.90;;;;;;5045361;28;20208;-80
2023/06/09 05:38:45;;;;;;;0.10;0.10;;;19.60;99.90;;;;;;5046496;28;20190;-79
2023/06/09 05:41:11;;;;;;;0.10;0.10;;;19.50;99.90;;;;;;5047739;28;20208;-80
2023/06/09 05:43:36;;;;;;;0.10;0.10;;;19.80;99.90;;;;;;5045255;28;20185;-81
2023/06/09 05:46:02;;;;;;;0.10;0.10;;;19.90;99.90;;;;;;5046065;28;20198;-80
2023/06/09 05:48:28;;;;;;;0.10;0.10;;;20.00;99.90;;;;;;5045186;28;20272;-80
2023/06/09 05:50:53;;;;;;;0.10;0.10;;;20.10;99.90;;;;;;5046574;28;20182;-80
2023/06/09 05:53:19;;;;;;;0.10;0.10;;;20.20;99.90;;;;;;5044677;28;20178;-80
2023/06/09 05:55:47;;;;;;;0.10;0.10;;;20.50;99.90;;;;;;5044152;28;20235;-81
2023/06/09 05:58:14;;;;;;;0.10;0.10;;;20.60;99.90;;;;;;5044439;28;20174;-80
2023/06/09 06:00:39;;;;;;;0.10;0.10;;;20.80;99.90;;;;;;5044550;28;20670;-80
2023/06/09 06:03:08;;;;;;;0.10;0.10;;;20.70;99.90;;;;;;5046043;28;20185;-80
2023/06/09 06:05:33;;;;;;;0.10;0.10;;;20.50;99.90;;;;;;5046211;28;20202;-80
2023/06/09 06:07:59;;;;;;;0.10;0.10;;;20.50;99.90;;;;;;5044631;28;20674;-80
2023/06/09 06:10:25;;;;;;;0.10;0.10;;;20.60;99.90;;;;;;5046163;28;20185;-80
2023/06/09 06:12:50;;;;;;;0.10;0.10;;;20.70;99.90;;;;;;5044741;28;20181;-80
2023/06/09 06:15:16;;;;;;;0.10;0.10;;;20.90;99.90;;;;;;5043907;28;20665;-80
2023/06/09 06:17:41;;;;;;;0.10;0.10;;;20.90;99.90;;;;;;5044536;28;20213;-80
2023/06/09 06:20:07;;;;;;;0.10;0.10;;;21.20;99.90;;;;;;5044867;28;20265;-80
2023/06/09 06:22:33;;;;;;;0.10;0.10;;;21.00;99.90;;;;;;5045631;28;20261;-81
2023/06/09 06:24:59;;;;;;;0.10;0.10;;;21.10;99.90;;;;;;5043868;28;20186;-80
2023/06/09 06:27:24;;;;;;;0.10;0.10;;;21.50;99.90;;;;;;5044501;28;20704;-80
2023/06/09 06:29:50;;;;;;;0.10;0.10;;;21.60;99.90;;;;;;5046021;28;20186;-80
2023/06/09 06:32:15;;;;;;;0.10;0.10;;;21.50;99.90;;;;;;5043677;28;20186;-80
2023/06/09 06:34:41;;;;;;;0.10;0.10;;;21.30;99.90;;;;;;5044126;28;20247;-80
2023/06/09 06:37:06;;;;;;;0.10;0.10;;;21.30;99.90;;;;;;5045420;28;20224;-81
2023/06/09 06:39:32;;;;;;;0.20;0.20;;;21.50;99.90;;;;;;5045190;28;20209;-80
2023/06/09 06:41:57;;;;;;;0.10;0.10;;;21.30;99.90;;;;;;5044000;28;20178;-80
2023/06/09 06:44:23;;;;;;;0.10;0.10;;;21.40;99.90;;;;;;5044059;28;20247;-80
2023/06/09 06:46:48;;;;;;;0.10;0.10;;;21.70;99.90;;;;;;5045069;28;20585;-80
2023/06/09 06:49:14;;;;;;;0.10;0.10;;;22.00;99.90;;;;;;5043315;28;20185;-80
2023/06/09 06:51:40;;;;;;;0.10;0.10;;;21.70;99.90;;;;;;5044684;28;20249;-80
2023/06/09 06:54:05;;;;;;;1.03;1.03;;;21.60;99.90;;;;;;5043328;28;20376;-80
2023/06/09 06:56:31;;;;;;;0.10;0.10;;;21.70;99.90;;;;;;5047163;28;20304;-80
2023/06/09 06:58:57;;;;;;;0.10;0.10;;;21.60;99.90;;;;;;5046197;28;20178;-80
2023/06/09 07:01:22;;;;;;;0.10;0.10;;;22.00;99.90;;;;;;5046579;28;20263;-80
2023/06/09 07:03:52;;;;;;;0.10;0.10;;;22.00;99.90;;;;;;5047147;28;20702;-80
2023/06/09 07:06:19;;;;;;;0.10;0.10;;;22.30;99.90;;;;;;5046306;28;20221;-81
2023/06/09 07:08:45;;;;;;;0.10;0.10;;;22.10;99.90;;;;;;5047351;28;20647;-80
2023/06/09 07:11:10;;;;;;;0.10;0.10;;;22.00;99.90;;;;;;5046916;28;20181;-80
2023/06/09 07:13:36;;;;;;;0.10;0.10;;;21.90;99.90;;;;;;5046424;28;20185;-80
2023/06/09 07:16:01;;;;;;;0.10;0.10;;;22.30;99.90;;;;;;5046856;28;20694;-80
2023/06/09 07:18:27;;;;;;;0.10;0.10;;;21.80;99.90;;;;;;5046873;28;20186;-81
2023/06/09 07:20:53;;;;;;;0.10;0.10;;;22.40;99.90;;;;;;5048880;28;20519;-80
2023/06/09 07:23:19;;;;;;;0.10;0.10;;;22.30;99.90;;;;;;5048640;28;20232;-80
2023/06/09 07:25:44;;;;;;;0.10;0.10;;;22.50;99.90;;;;;;5048200;28;20185;-80
2023/06/09 07:28:10;;;;;;;0.10;0.10;;;22.50;99.90;;;;;;5048580;28;20186;-81
2023/06/09 07:30:37;;;;;;;0.10;0.10;;;22.90;99.90;;;;;;5047149;28;20280;-80
2023/06/09 07:33:05;;;;;;;0.13;0.13;;;22.60;99.90;;;;;;5047512;28;20889;-80
2023/06/09 07:35:30;;;;;;;0.10;0.10;;;22.70;99.90;;;;;;5047964;28;20209;-80
2023/06/09 07:37:56;;;;;;;0.10;0.10;;;22.90;99.90;;;;;;5047072;28;20198;-80
2023/06/09 07:40:22;;;;;;;0.10;0.10;;;22.50;99.90;;;;;;5047173;28;20182;-80
2023/06/09 07:42:48;;;;;;;0.10;0.10;;;22.50;99.90;;;;;;5047353;28;20174;-81
2023/06/09 07:45:14;;;;;;;0.10;0.10;;;23.00;99.90;;;;;;5048552;28;21094;-80
2023/06/09 07:47:40;;;;;;;0.10;0.10;;;23.10;99.90;;;;;;5046827;28;20238;-80
2023/06/09 07:50:06;;;;;;;0.10;0.10;;;23.10;99.90;;;;;;5046619;28;20174;-80
2023/06/09 07:52:32;;;;;;;0.10;0.10;;;23.00;99.90;;;;;;5047747;28;21007;-80
2023/06/09 07:54:57;;;;;;;0.53;0.53;;;23.10;99.90;;;;;;5048033;28;20185;-81
2023/06/09 07:57:23;;;;;;;0.10;0.10;;;23.10;99.90;;;;;;5047457;28;20292;-80
2023/06/09 07:59:48;;;;;;;0.10;0.10;;;23.40;99.90;;;;;;5047908;28;20190;-80
2023/06/09 08:02:14;;;;;;;0.10;0.10;;;23.80;99.90;;;;;;5046115;28;20647;-81
2023/06/09 08:04:40;;;;;;;0.10;0.10;;;23.10;99.90;;;;;;5045964;28;20201;-80
2023/06/09 08:07:06;;;;;;;0.10;0.10;;;23.10;99.90;;;;;;5046048;28;20667;-80
2023/06/09 08:09:32;;;;;;;0.10;0.10;;;23.00;99.90;;;;;;5045563;28;20194;-80
2023/06/09 08:11:57;;;;;;;0.10;0.10;;;23.50;99.90;;;;;;5053554;28;20281;-80
2023/06/09 08:14:23;;;;;;;0.10;0.10;;;23.20;99.90;;;;;;5045974;28;20272;-81
2023/06/09 08:16:50;;;;;;;0.10;0.10;;;23.30;99.90;;;;;;5046885;28;20220;-81
2023/06/09 08:19:15;;;;;;;0.10;0.10;;;23.80;99.90;;;;;;5047423;28;20600;-80
2023/06/09 08:21:43;;;;;;;0.10;0.10;;;23.60;99.90;;;;;;5045233;28;20277;-81
2023/06/09 08:24:10;;;;;;;0.10;0.10;;;23.80;99.90;;;;;;5046970;28;20216;-80
2023/06/09 08:26:36;;;;;;;0.10;0.10;;;23.60;99.90;;;;;;5047016;28;20197;-81
2023/06/09 08:29:03;;;;;;;0.10;0.10;;;23.70;99.90;;;;;;5045975;28;20540;-80
2023/06/09 08:31:29;;;;;;;0.10;0.10;;;24.00;99.90;;;;;;5045160;28;20272;-80
2023/06/09 08:33:55;;;;;;;0.10;0.10;;;23.80;99.90;;;;;;5045851;28;20269;-80
2023/06/09 08:36:20;;;;;;;0.10;0.10;;;23.80;99.90;;;;;;5046467;28;20288;-81
2023/06/09 08:38:46;;;;;;;0.10;0.10;;;23.80;99.90;;;;;;5046669;28;20576;-81
2023/06/09 08:41:14;;;;;;;0.10;0.10;;;23.60;99.90;;;;;;5046168;28;20280;-80
2023/06/09 08:43:40;;;;;;;0.10;0.10;;;23.80;99.90;;;;;;5046854;28;20802;-81
2023/06/09 08:46:09;;;;;;;0.10;0.10;;;24.00;99.90;;;;;;5046830;28;20217;-80
2023/06/09 08:48:37;;;;;;;0.10;0.10;;;23.90;99.90;;;;;;5047911;28;20663;-80
2023/06/09 08:51:03;;;;;;;0.10;0.10;;;23.80;99.90;;;;;;5045377;28;20185;-81
2023/06/09 08:53:30;;;;;;;0.20;0.20;;;23.80;99.90;;;;;;5046060;28;20234;-80
2023/06/09 08:55:55;;;;;;;0.10;0.10;;;24.00;99.90;;;;;;5047847;28;20201;-80
2023/06/09 08:58:24;;;;;;;0.10;0.10;;;24.70;99.90;;;;;;5044968;28;20182;-80
2023/06/09 09:00:50;;;;;;;0.20;0.20;;;25.20;99.90;;;;;;5045376;28;20214;-81
2023/06/09 09:03:17;;;;;;;0.10;0.10;;;25.20;99.90;;;;;;5047428;28;20174;-80
2023/06/09 09:05:43;;;;;;;0.10;0.10;;;25.50;99.90;;;;;;5045673;28;20662;-81
2023/06/09 09:08:10;;;;;;;0.10;0.10;;;25.30;99.90;;;;;;5046412;28;20200;-80
2023/06/09 09:10:38;;;;;;;0.10;0.10;;;25.80;99.90;;;;;;5045144;28;20238;-80
2023/06/09 09:13:10;;;;;;;0.10;0.10;;;25.40;99.90;;;;;;5045108;28;20182;-81
2023/06/09 09:15:37;;;;;;;0.10;0.10;;;25.90;99.90;;;;;;5044639;28;20618;-81
2023/06/09 09:18:06;;;;;;;0.10;0.10;;;25.90;99.90;;;;;;5044034;28;20208;-80
2023/06/09 09:20:35;;;;;;;0.10;0.10;;;26.00;99.90;;;;;;5046284;28;20663;-81
2023/06/09 09:23:04;;;;;;;0.10;0.10;;;25.90;99.90;;;;;;5046091;28;20657;-81
2023/06/09 09:25:30;;;;;;;0.10;0.10;;;25.90;99.90;;;;;;5046087;28;20174;-80
2023/06/09 09:28:00;;;;;;;0.10;0.10;;;25.90;99.90;;;;;;5044127;28;20227;-80
2023/06/09 09:30:56;;;;;;;0.10;0.10;;;26.00;99.90;;;;;;5044812;28;20265;-81
2023/06/09 09:33:29;;;;;;;0.10;0.10;;;25.40;99.90;;;;;;5042017;28;20643;-81
2023/06/09 09:35:57;;;;;;;0.10;0.10;;;25.20;99.90;;;;;;5052076;28;20555;-81
2023/06/09 09:38:25;;;;;;;0.10;0.10;;;25.30;99.90;;;;;;5043899;28;20189;-81
2023/06/09 09:40:52;;;;;;;0.10;0.10;;;25.50;99.90;;;;;;5043345;28;20196;-81
2023/06/09 09:43:19;;;;;;;0.10;0.10;;;25.60;99.90;;;;;;5045920;28;20181;-80
2023/06/09 09:45:49;;;;;;;0.10;0.10;;;26.20;99.90;;;;;;5045433;28;20185;-81
2023/06/09 09:48:17;;;;;;;0.10;0.10;;;26.20;99.90;;;;;;5044183;28;20181;-81
2023/06/09 09:50:44;;;;;;;0.10;0.10;;;26.80;99.90;;;;;;5043240;28;20192;-80
2023/06/09 09:53:10;;;;;;;0.10;0.10;;;26.50;99.90;;;;;;5044303;28;20719;-81
2023/06/09 09:55:42;;;;;;;0.10;0.10;;;26.40;99.90;;;;;;5045628;28;20283;-81
2023/06/09 09:58:09;;;;;;;0.10;0.10;;;26.30;99.90;;;;;;5043717;28;20645;-81
2023/06/09 10:00:36;;;;;;;0.10;0.10;;;26.20;99.90;;;;;;5044042;28;20177;-81
2023/06/09 10:03:18;;;;;;;0.10;0.10;;;26.30;99.90;;;;;;5052360;28;20177;-81
2023/06/09 10:05:46;;;;;;;0.10;0.10;;;26.00;99.90;;;;;;5045188;28;20251;-81
2023/06/09 10:08:15;;;;;;;0.10;0.10;;;25.90;99.90;;;;;;5045441;28;20185;-81
2023/06/09 10:10:40;;;;;;;0.10;0.10;;;26.60;99.90;;;;;;5044898;28;20190;-81
2023/06/09 10:13:07;;;;;;;0.10;0.10;;;26.50;99.90;;;;;;5043838;28;21015;-81
2023/06/09 10:15:33;;;;;;;0.10;0.10;;;26.70;99.90;;;;;;5043646;28;20185;-81
2023/06/09 10:18:00;;;;;;;0.10;0.10;;;26.70;99.90;;;;;;5044857;28;20204;-80
2023/06/09 10:20:26;;;;;;;0.10;0.10;;;27.20;99.90;;;;;;5044443;28;20606;-80
2023/06/09 10:22:53;;;;;;;0.10;0.10;;;27.60;99.90;;;;;;5045279;28;20291;-81
2023/06/09 10:25:19;;;;;;;0.10;0.10;;;27.60;99.90;;;;;;5043465;28;20178;-81
2023/06/09 10:27:45;;;;;;;0.10;0.10;;;27.40;99.90;;;;;;5043096;28;20208;-81
2023/06/09 10:30:14;;;;;;;0.10;0.10;;;27.30;99.90;;;;;;5046149;28;20182;-80
2023/06/09 10:32:46;;;;;;;0.10;0.10;;;27.50;99.90;;;;;;5048306;28;20638;-81
2023/06/09 10:35:15;;;;;;;0.10;0.10;;;26.80;99.90;;;;;;5047618;28;20689;-81
2023/06/09 10:37:41;;;;;;;0.10;0.10;;;27.20;99.90;;;;;;5047527;28;20213;-80
2023/06/09 10:40:14;;;;;;;0.10;0.10;;;27.20;99.90;;;;;;5047279;28;20184;-81
2023/06/09 10:42:49;;;;;;;0.10;0.10;;;27.10;99.90;;;;;;5050742;28;20205;-80
2023/06/09 10:45:17;;;;;;;0.10;0.10;;;27.50;99.90;;;;;;5048841;28;20627;-81
2023/06/09 10:47:45;;;;;;;0.10;0.10;;;28.20;99.90;;;;;;5048350;28;20205;-81
2023/06/09 10:50:22;;;;;;;0.60;0.60;;;28.00;99.90;;;;;;5048689;28;20240;-81
2023/06/09 10:52:53;;;;;;;0.10;0.10;;;27.40;99.90;;;;;;5049087;28;20905;-81
2023/06/09 10:55:21;;;;;;;0.10;0.10;;;27.70;99.90;;;;;;5047761;28;20526;-81
2023/06/09 10:57:47;;;;;;;0.10;0.10;;;27.80;99.90;;;;;;5047380;28;20258;-81
2023/06/09 11:00:14;;;;;;;0.10;0.10;;;27.80;99.90;;;;;;5047520;28;20658;-81
2023/06/09 11:02:41;;;;;;;0.10;0.10;;;27.90;99.90;;;;;;5048462;28;20177;-81
2023/06/09 11:05:08;;;;;;;0.10;0.10;;;28.00;99.90;;;;;;5049293;28;20224;-81
2023/06/09 11:07:46;;;;;;;0.10;0.10;;;27.90;99.90;;;;;;5056741;28;20256;-81
2023/06/09 11:10:12;;;;;;;0.10;0.10;;;28.00;99.90;;;;;;5048705;28;20223;-81
2023/06/09 11:12:38;;;;;;;0.10;0.10;;;28.20;99.90;;;;;;5047420;28;20181;-80
2023/06/09 11:15:06;;;;;;;0.10;0.10;;;28.60;99.90;;;;;;5047237;28;20201;-81
2023/06/09 11:17:39;;;;;;;0.10;0.10;;;27.80;99.90;;;;;;5048347;28;20205;-81
2023/06/09 11:20:38;;;;;;;0.10;0.10;;;27.50;99.90;;;;;;5047077;28;20265;-81
2023/06/09 11:23:01;;;;;;;0.10;0.10;;;26.90;99.90;;;;;;5048274;28;20247;-81
2023/06/09 11:25:27;;;;;;;0.10;0.10;;;27.30;99.90;;;;;;5048136;28;20173;-81
2023/06/09 11:27:59;;;;;;;0.10;0.10;;;27.40;99.90;;;;;;5046770;28;20355;-81
2023/06/09 11:30:26;;;;;;;1.35;1.35;;;27.80;99.90;;;;;;5046047;28;20224;-80
2023/06/09 11:32:58;;;;;;;0.10;0.10;;;28.20;99.90;;;;;;5047959;28;20213;-81
2023/06/09 11:35:39;;;;;;;0.10;0.10;;;28.50;99.90;;;;;;5046851;28;20252;-81
2023/06/09 11:38:20;;;;;;;0.10;0.10;;;29.30;99.90;;;;;;5047610;28;20276;-81
2023/06/09 11:40:51;;;;;;;0.10;0.10;;;29.60;99.90;;;;;;5044520;28;20208;-80
2023/06/09 11:43:19;;;;;;;1.25;1.20;;;28.50;99.90;;;;;;5044522;28;20268;-81
2023/06/09 11:45:45;;;;;;;0.10;0.10;;;28.80;99.90;;;;;;5047736;28;20178;-81
2023/06/09 11:48:11;;;;;;;0.10;0.10;;;29.10;99.90;;;;;;5046133;28;20535;-81
2023/06/09 11:50:45;;;;;;;0.10;0.10;;;29.20;99.90;;;;;;5046631;28;20190;-81
2023/06/09 11:53:15;;;;;;;0.50;0.50;;;28.70;99.90;;;;;;5046564;28;20659;-81
2023/06/09 11:55:40;;;;;;;0.10;0.10;;;29.20;99.90;;;;;;5047661;28;20205;-81
2023/06/09 11:58:08;;;;;;;0.10;0.10;;;29.10;99.90;;;;;;5046792;28;20193;-81
2023/06/09 12:00:38;;;;;;;0.10;0.10;;;29.60;99.90;;;;;;5046973;28;20177;-81
2023/06/09 12:03:05;;;;;;;0.10;0.10;;;29.90;99.90;;;;;;5047012;28;20181;-80
2023/06/09 12:05:31;;;;;;;0.10;0.10;;;29.60;99.90;;;;;;5045852;28;20204;-81
2023/06/09 12:07:57;;;;;;;0.60;0.60;;;29.40;99.90;;;;;;5045637;28;20293;-81
2023/06/09 12:10:26;;;;;;;0.10;0.10;;;29.10;99.90;;;;;;5048498;28;20557;-81
2023/06/09 12:12:53;;;;;;;0.10;0.10;;;29.40;99.90;;;;;;5047345;28;20255;-81
2023/06/09 12:15:20;;;;;;;0.10;0.10;;;29.60;99.90;;;;;;5047663;28;20173;-81
2023/06/09 12:17:48;;;;;;;0.10;0.10;;;29.00;99.90;;;;;;5045514;28;20232;-81
2023/06/09 12:20:27;;;;;;;0.10;0.10;;;28.80;99.90;;;;;;5047705;28;20189;-81
2023/06/09 12:22:55;;;;;;;0.10;0.10;;;29.10;99.90;;;;;;5046897;28;20201;-81
2023/06/09 12:25:27;;;;;;;0.10;0.10;;;29.30;99.90;;;;;;5047633;28;20176;-81
2023/06/09 12:27:54;;;;;;;0.10;0.10;;;29.50;99.90;;;;;;5045315;28;20206;-81
2023/06/09 12:30:37;;;;;;;0.10;0.10;;;29.40;99.90;;;;;;5045844;28;20220;-81
2023/06/09 12:33:13;;;;;;;0.60;0.60;;;29.20;99.90;;;;;;5045867;28;20646;-81
2023/06/09 12:35:44;;;;;;;0.10;0.10;;;28.40;99.90;;;;;;5045115;28;20560;-81
2023/06/09 12:38:20;;;;;;;0.10;0.10;;;28.50;99.90;;;;;;5045931;28;20188;-80
2023/06/09 12:40:48;;;;;;;0.10;0.10;;;28.50;99.90;;;;;;5045887;28;20216;-81
2023/06/09 12:43:18;;;;;;;0.10;0.10;;;28.40;99.90;;;;;;5044866;28;20193;-81
2023/06/09 12:45:45;;;;;;;0.10;0.10;;;28.60;99.90;;;;;;5047337;28;20188;-81
2023/06/09 12:48:10;;;;;;;0.20;0.20;;;28.30;99.90;;;;;;5045740;28;20182;-81
2023/06/09 12:50:37;;;;;;;0.10;0.10;;;27.70;99.90;;;;;;5046986;28;20208;-81